sensor_id;sensor_type;location;lat;lon;timestamp;P1;durP1;ratioP1;P2;durP2;ratioP2
40755;SDS011;26461;45.630;9.418;2023-06-24T00:01:13;4.47;;;3.80;;
40755;SDS011;26461;45.630;9.418;2023-06-24T00:04:19;6.17;;;4.30;;
40755;SDS011;26461;45.630;9.418;2023-06-24T00:07:30;3.93;;;3.73;;
40755;SDS011;26461;45.630;9.418;2023-06-24T00:10:43;5.90;;;4.33;;
40755;SDS011;26461;45.630;9.418;2023-06-24T00:13:53;5.90;;;3.83;;
40755;SDS011;26461;45.630;9.418;2023-06-24T00:17:04;4.80;;;3.03;;
40755;SDS011;26461;45.630;9.418;2023-06-24T00:20:16;7.07;;;3.90;;
40755;SDS011;26461;45.630;9.418;2023-06-24T00:23:24;4.90;;;3.60;;
40755;SDS011;26461;45.630;9.418;2023-06-24T00:26:35;12.90;;;3.50;;
40755;SDS011;26461;45.630;9.418;2023-06-24T00:29:45;4.03;;;3.40;;
40755;SDS011;26461;45.630;9.418;2023-06-24T00:32:55;3.63;;;3.13;;
40755;SDS011;26461;45.630;9.418;2023-06-24T00:36:02;3.30;;;2.77;;
40755;SDS011;26461;45.630;9.418;2023-06-24T00:39:12;3.70;;;3.10;;
40755;SDS011;26461;45.630;9.418;2023-06-24T00:42:22;4.20;;;3.33;;
40755;SDS011;26461;45.630;9.418;2023-06-24T00:45:32;3.87;;;3.27;;
40755;SDS011;26461;45.630;9.418;2023-06-24T00:48:43;4.17;;;3.40;;
40755;SDS011;26461;45.630;9.418;2023-06-24T00:51:53;3.87;;;3.00;;
40755;SDS011;26461;45.630;9.418;2023-06-24T00:55:05;3.50;;;3.03;;
40755;SDS011;26461;45.630;9.418;2023-06-24T00:58:16;3.07;;;2.87;;
40755;SDS011;26461;45.630;9.418;2023-06-24T01:01:32;3.87;;;2.90;;
40755;SDS011;26461;45.630;9.418;2023-06-24T01:04:40;3.67;;;3.10;;
40755;SDS011;26461;45.630;9.418;2023-06-24T01:07:53;4.03;;;3.30;;
40755;SDS011;26461;45.630;9.418;2023-06-24T01:11:05;4.23;;;3.50;;
40755;SDS011;26461;45.630;9.418;2023-06-24T01:14:15;3.53;;;2.93;;
40755;SDS011;26461;45.630;9.418;2023-06-24T01:17:31;4.57;;;3.83;;
40755;SDS011;26461;45.630;9.418;2023-06-24T01:20:45;5.03;;;3.80;;
40755;SDS011;26461;45.630;9.418;2023-06-24T01:27:39;3.93;;;3.57;;
40755;SDS011;26461;45.630;9.418;2023-06-24T01:37:35;4.20;;;3.40;;
40755;SDS011;26461;45.630;9.418;2023-06-24T01:40:52;4.70;;;3.87;;
40755;SDS011;26461;45.630;9.418;2023-06-24T01:44:05;3.97;;;3.63;;
40755;SDS011;26461;45.630;9.418;2023-06-24T01:47:16;3.90;;;3.20;;
40755;SDS011;26461;45.630;9.418;2023-06-24T01:50:26;4.37;;;3.47;;
40755;SDS011;26461;45.630;9.418;2023-06-24T01:53:36;3.77;;;3.50;;
40755;SDS011;26461;45.630;9.418;2023-06-24T01:56:50;4.27;;;3.80;;
40755;SDS011;26461;45.630;9.418;2023-06-24T02:00:09;5.00;;;3.27;;
40755;SDS011;26461;45.630;9.418;2023-06-24T02:03:27;3.70;;;3.50;;
40755;SDS011;26461;45.630;9.418;2023-06-24T02:06:41;5.40;;;3.73;;
40755;SDS011;26461;45.630;9.418;2023-06-24T02:09:53;5.10;;;4.00;;
40755;SDS011;26461;45.630;9.418;2023-06-24T02:13:04;4.60;;;4.30;;
40755;SDS011;26461;45.630;9.418;2023-06-24T02:16:17;5.40;;;3.40;;
40755;SDS011;26461;45.630;9.418;2023-06-24T02:19:31;5.73;;;3.73;;
40755;SDS011;26461;45.630;9.418;2023-06-24T02:22:43;3.33;;;3.07;;
40755;SDS011;26461;45.630;9.418;2023-06-24T02:25:50;5.70;;;4.10;;
40755;SDS011;26461;45.630;9.418;2023-06-24T02:28:55;3.33;;;3.20;;
40755;SDS011;26461;45.630;9.418;2023-06-24T02:32:08;3.97;;;3.67;;
40755;SDS011;26461;45.630;9.418;2023-06-24T02:35:19;3.40;;;3.10;;
40755;SDS011;26461;45.630;9.418;2023-06-24T02:38:33;3.70;;;3.50;;
40755;SDS011;26461;45.630;9.418;2023-06-24T02:41:44;3.93;;;3.00;;
40755;SDS011;26461;45.630;9.418;2023-06-24T02:44:56;4.53;;;4.27;;
40755;SDS011;26461;45.630;9.418;2023-06-24T02:48:03;3.70;;;3.50;;
40755;SDS011;26461;45.630;9.418;2023-06-24T02:51:15;3.60;;;3.00;;
40755;SDS011;26461;45.630;9.418;2023-06-24T02:54:26;4.17;;;3.37;;
40755;SDS011;26461;45.630;9.418;2023-06-24T02:57:55;4.80;;;3.57;;
40755;SDS011;26461;45.630;9.418;2023-06-24T03:01:26;4.57;;;3.40;;
40755;SDS011;26461;45.630;9.418;2023-06-24T03:04:38;3.80;;;3.43;;
40755;SDS011;26461;45.630;9.418;2023-06-24T03:07:44;4.33;;;3.50;;
40755;SDS011;26461;45.630;9.418;2023-06-24T03:10:51;6.10;;;4.57;;
40755;SDS011;26461;45.630;9.418;2023-06-24T03:14:01;3.60;;;3.47;;
40755;SDS011;26461;45.630;9.418;2023-06-24T03:17:15;3.97;;;3.40;;
40755;SDS011;26461;45.630;9.418;2023-06-24T03:20:26;7.50;;;4.60;;
40755;SDS011;26461;45.630;9.418;2023-06-24T03:23:37;4.43;;;3.63;;
40755;SDS011;26461;45.630;9.418;2023-06-24T03:26:53;3.73;;;3.10;;
40755;SDS011;26461;45.630;9.418;2023-06-24T03:30:15;3.53;;;3.33;;
40755;SDS011;26461;45.630;9.418;2023-06-24T03:33:25;4.80;;;3.93;;
40755;SDS011;26461;45.630;9.418;2023-06-24T03:36:37;3.10;;;2.90;;
40755;SDS011;26461;45.630;9.418;2023-06-24T03:39:52;4.77;;;3.90;;
40755;SDS011;26461;45.630;9.418;2023-06-24T03:43:03;4.50;;;3.00;;
40755;SDS011;26461;45.630;9.418;2023-06-24T03:46:13;4.80;;;3.80;;
40755;SDS011;26461;45.630;9.418;2023-06-24T03:49:24;6.27;;;3.70;;
40755;SDS011;26461;45.630;9.418;2023-06-24T03:52:39;4.77;;;3.80;;
40755;SDS011;26461;45.630;9.418;2023-06-24T03:55:50;3.73;;;3.57;;
40755;SDS011;26461;45.630;9.418;2023-06-24T03:58:55;5.23;;;4.00;;
40755;SDS011;26461;45.630;9.418;2023-06-24T04:02:06;3.87;;;3.10;;
40755;SDS011;26461;45.630;9.418;2023-06-24T04:05:17;4.73;;;3.50;;
40755;SDS011;26461;45.630;9.418;2023-06-24T04:08:28;3.30;;;3.10;;
40755;SDS011;26461;45.630;9.418;2023-06-24T04:11:41;6.03;;;3.63;;
40755;SDS011;26461;45.630;9.418;2023-06-24T04:14:51;4.67;;;3.40;;
40755;SDS011;26461;45.630;9.418;2023-06-24T04:18:01;4.33;;;3.00;;
40755;SDS011;26461;45.630;9.418;2023-06-24T04:21:11;3.27;;;3.07;;
40755;SDS011;26461;45.630;9.418;2023-06-24T04:24:16;5.00;;;4.27;;
40755;SDS011;26461;45.630;9.418;2023-06-24T04:27:26;4.30;;;3.60;;
40755;SDS011;26461;45.630;9.418;2023-06-24T04:30:37;5.30;;;3.67;;
40755;SDS011;26461;45.630;9.418;2023-06-24T04:33:49;4.17;;;3.30;;
40755;SDS011;26461;45.630;9.418;2023-06-24T04:36:59;6.27;;;4.23;;
40755;SDS011;26461;45.630;9.418;2023-06-24T04:40:12;3.93;;;3.73;;
40755;SDS011;26461;45.630;9.418;2023-06-24T04:43:23;5.70;;;3.40;;
40755;SDS011;26461;45.630;9.418;2023-06-24T04:46:34;4.00;;;3.33;;
40755;SDS011;26461;45.630;9.418;2023-06-24T04:49:44;5.20;;;3.30;;
40755;SDS011;26461;45.630;9.418;2023-06-24T04:52:53;5.80;;;3.90;;
40755;SDS011;26461;45.630;9.418;2023-06-24T04:56:01;3.80;;;3.60;;
40755;SDS011;26461;45.630;9.418;2023-06-24T04:59:13;8.50;;;3.87;;
40755;SDS011;26461;45.630;9.418;2023-06-24T05:02:21;3.80;;;3.33;;
40755;SDS011;26461;45.630;9.418;2023-06-24T05:05:32;3.97;;;3.57;;
40755;SDS011;26461;45.630;9.418;2023-06-24T05:08:37;3.90;;;3.67;;
40755;SDS011;26461;45.630;9.418;2023-06-24T05:11:42;3.53;;;3.33;;
40755;SDS011;26461;45.630;9.418;2023-06-24T05:14:51;4.00;;;3.33;;
40755;SDS011;26461;45.630;9.418;2023-06-24T05:18:04;5.07;;;4.40;;
40755;SDS011;26461;45.630;9.418;2023-06-24T05:21:15;3.50;;;3.17;;
40755;SDS011;26461;45.630;9.418;2023-06-24T05:24:30;3.80;;;3.60;;
40755;SDS011;26461;45.630;9.418;2023-06-24T05:27:36;3.90;;;3.70;;
40755;SDS011;26461;45.630;9.418;2023-06-24T05:30:44;6.40;;;4.17;;
40755;SDS011;26461;45.630;9.418;2023-06-24T05:33:55;4.73;;;4.43;;
40755;SDS011;26461;45.630;9.418;2023-06-24T05:37:05;4.77;;;3.60;;
40755;SDS011;26461;45.630;9.418;2023-06-24T05:40:11;3.97;;;3.17;;
40755;SDS011;26461;45.630;9.418;2023-06-24T05:43:17;4.00;;;3.53;;
40755;SDS011;26461;45.630;9.418;2023-06-24T05:46:22;4.00;;;3.87;;
40755;SDS011;26461;45.630;9.418;2023-06-24T05:49:33;3.83;;;3.30;;
40755;SDS011;26461;45.630;9.418;2023-06-24T05:52:43;3.73;;;3.23;;
40755;SDS011;26461;45.630;9.418;2023-06-24T05:55:49;4.00;;;3.10;;
40755;SDS011;26461;45.630;9.418;2023-06-24T05:58:59;5.77;;;3.90;;
40755;SDS011;26461;45.630;9.418;2023-06-24T06:02:10;3.87;;;3.27;;
40755;SDS011;26461;45.630;9.418;2023-06-24T06:05:20;4.30;;;3.27;;
40755;SDS011;26461;45.630;9.418;2023-06-24T06:08:30;3.70;;;3.30;;
40755;SDS011;26461;45.630;9.418;2023-06-24T06:11:40;4.23;;;3.50;;
40755;SDS011;26461;45.630;9.418;2023-06-24T06:14:54;3.70;;;3.30;;
40755;SDS011;26461;45.630;9.418;2023-06-24T06:18:02;5.00;;;3.43;;
40755;SDS011;26461;45.630;9.418;2023-06-24T06:21:13;5.00;;;3.97;;
40755;SDS011;26461;45.630;9.418;2023-06-24T06:24:23;4.40;;;3.70;;
40755;SDS011;26461;45.630;9.418;2023-06-24T06:27:33;5.90;;;3.70;;
40755;SDS011;26461;45.630;9.418;2023-06-24T06:30:48;4.90;;;4.30;;
40755;SDS011;26461;45.630;9.418;2023-06-24T06:33:59;4.27;;;4.00;;
40755;SDS011;26461;45.630;9.418;2023-06-24T06:37:09;4.00;;;3.80;;
40755;SDS011;26461;45.630;9.418;2023-06-24T06:40:20;4.30;;;4.00;;
40755;SDS011;26461;45.630;9.418;2023-06-24T06:43:33;4.53;;;3.50;;
40755;SDS011;26461;45.630;9.418;2023-06-24T06:46:44;5.63;;;4.10;;
40755;SDS011;26461;45.630;9.418;2023-06-24T06:49:54;3.00;;;2.80;;
40755;SDS011;26461;45.630;9.418;2023-06-24T06:53:05;5.53;;;3.23;;
40755;SDS011;26461;45.630;9.418;2023-06-24T06:56:24;5.13;;;3.70;;
40755;SDS011;26461;45.630;9.418;2023-06-24T06:59:30;4.27;;;3.97;;
40755;SDS011;26461;45.630;9.418;2023-06-24T07:02:41;4.03;;;3.10;;
40755;SDS011;26461;45.630;9.418;2023-06-24T07:05:51;3.50;;;3.30;;
40755;SDS011;26461;45.630;9.418;2023-06-24T07:08:56;5.47;;;4.10;;
40755;SDS011;26461;45.630;9.418;2023-06-24T07:12:07;5.03;;;3.63;;
40755;SDS011;26461;45.630;9.418;2023-06-24T07:15:18;6.43;;;3.70;;
40755;SDS011;26461;45.630;9.418;2023-06-24T07:18:29;4.10;;;3.10;;
40755;SDS011;26461;45.630;9.418;2023-06-24T07:21:40;5.40;;;4.50;;
40755;SDS011;26461;45.630;9.418;2023-06-24T07:24:50;4.70;;;3.60;;
40755;SDS011;26461;45.630;9.418;2023-06-24T07:28:01;4.60;;;4.33;;
40755;SDS011;26461;45.630;9.418;2023-06-24T07:31:11;7.60;;;4.30;;
40755;SDS011;26461;45.630;9.418;2023-06-24T07:34:22;6.97;;;4.30;;
40755;SDS011;26461;45.630;9.418;2023-06-24T07:37:31;5.90;;;4.27;;
40755;SDS011;26461;45.630;9.418;2023-06-24T07:40:42;6.27;;;3.90;;
40755;SDS011;26461;45.630;9.418;2023-06-24T07:43:55;6.37;;;4.47;;
40755;SDS011;26461;45.630;9.418;2023-06-24T07:47:06;6.00;;;4.50;;
40755;SDS011;26461;45.630;9.418;2023-06-24T07:50:11;4.37;;;3.87;;
40755;SDS011;26461;45.630;9.418;2023-06-24T07:53:22;5.13;;;4.03;;
40755;SDS011;26461;45.630;9.418;2023-06-24T07:56:27;4.73;;;3.90;;
40755;SDS011;26461;45.630;9.418;2023-06-24T07:59:33;9.13;;;4.60;;
40755;SDS011;26461;45.630;9.418;2023-06-24T08:02:43;5.50;;;4.23;;
40755;SDS011;26461;45.630;9.418;2023-06-24T08:05:48;5.07;;;3.63;;
40755;SDS011;26461;45.630;9.418;2023-06-24T08:09:00;5.33;;;4.67;;
40755;SDS011;26461;45.630;9.418;2023-06-24T08:12:05;5.77;;;4.20;;
40755;SDS011;26461;45.630;9.418;2023-06-24T08:15:16;17.33;;;5.73;;
40755;SDS011;26461;45.630;9.418;2023-06-24T08:18:27;5.40;;;4.00;;
40755;SDS011;26461;45.630;9.418;2023-06-24T08:21:37;4.90;;;4.23;;
40755;SDS011;26461;45.630;9.418;2023-06-24T08:24:48;6.30;;;3.93;;
40755;SDS011;26461;45.630;9.418;2023-06-24T08:27:58;5.13;;;4.13;;
40755;SDS011;26461;45.630;9.418;2023-06-24T08:31:08;4.63;;;3.60;;
40755;SDS011;26461;45.630;9.418;2023-06-24T08:34:18;6.13;;;4.33;;
40755;SDS011;26461;45.630;9.418;2023-06-24T08:37:28;5.03;;;3.83;;
40755;SDS011;26461;45.630;9.418;2023-06-24T08:40:40;5.83;;;4.63;;
40755;SDS011;26461;45.630;9.418;2023-06-24T08:43:53;8.10;;;5.87;;
40755;SDS011;26461;45.630;9.418;2023-06-24T08:46:59;5.47;;;4.60;;
40755;SDS011;26461;45.630;9.418;2023-06-24T08:50:05;6.20;;;4.77;;
40755;SDS011;26461;45.630;9.418;2023-06-24T08:53:20;7.17;;;5.10;;
40755;SDS011;26461;45.630;9.418;2023-06-24T08:56:31;5.73;;;5.43;;
40755;SDS011;26461;45.630;9.418;2023-06-24T08:59:42;6.13;;;4.83;;
40755;SDS011;26461;45.630;9.418;2023-06-24T09:02:53;5.03;;;4.50;;
40755;SDS011;26461;45.630;9.418;2023-06-24T09:06:03;5.10;;;4.73;;
40755;SDS011;26461;45.630;9.418;2023-06-24T09:09:17;7.90;;;4.87;;
40755;SDS011;26461;45.630;9.418;2023-06-24T09:12:31;4.93;;;4.10;;
40755;SDS011;26461;45.630;9.418;2023-06-24T09:15:45;8.90;;;5.03;;
40755;SDS011;26461;45.630;9.418;2023-06-24T09:18:50;8.10;;;5.87;;
40755;SDS011;26461;45.630;9.418;2023-06-24T09:22:05;10.40;;;6.20;;
40755;SDS011;26461;45.630;9.418;2023-06-24T09:25:16;8.60;;;5.83;;
40755;SDS011;26461;45.630;9.418;2023-06-24T09:28:28;8.23;;;5.83;;
40755;SDS011;26461;45.630;9.418;2023-06-24T09:31:33;5.50;;;5.17;;
40755;SDS011;26461;45.630;9.418;2023-06-24T09:34:44;6.83;;;5.33;;
40755;SDS011;26461;45.630;9.418;2023-06-24T09:37:52;7.30;;;6.10;;
40755;SDS011;26461;45.630;9.418;2023-06-24T09:41:04;8.77;;;5.20;;
40755;SDS011;26461;45.630;9.418;2023-06-24T09:44:15;5.97;;;4.40;;
40755;SDS011;26461;45.630;9.418;2023-06-24T09:47:28;7.20;;;4.90;;
40755;SDS011;26461;45.630;9.418;2023-06-24T09:50:33;5.37;;;5.10;;
40755;SDS011;26461;45.630;9.418;2023-06-24T09:53:43;7.10;;;5.30;;
40755;SDS011;26461;45.630;9.418;2023-06-24T09:56:56;5.00;;;4.77;;
40755;SDS011;26461;45.630;9.418;2023-06-24T10:00:10;5.93;;;4.20;;
40755;SDS011;26461;45.630;9.418;2023-06-24T10:03:20;5.17;;;4.00;;
40755;SDS011;26461;45.630;9.418;2023-06-24T10:06:26;4.70;;;4.20;;
40755;SDS011;26461;45.630;9.418;2023-06-24T10:09:36;5.67;;;4.27;;
40755;SDS011;26461;45.630;9.418;2023-06-24T10:12:48;4.30;;;4.00;;
40755;SDS011;26461;45.630;9.418;2023-06-24T10:15:54;5.70;;;4.83;;
40755;SDS011;26461;45.630;9.418;2023-06-24T10:19:06;6.27;;;4.23;;
40755;SDS011;26461;45.630;9.418;2023-06-24T10:22:16;6.67;;;5.00;;
40755;SDS011;26461;45.630;9.418;2023-06-24T10:25:35;10.30;;;5.30;;
40755;SDS011;26461;45.630;9.418;2023-06-24T10:29:08;5.47;;;5.17;;
40755;SDS011;26461;45.630;9.418;2023-06-24T10:32:14;5.60;;;4.43;;
40755;SDS011;26461;45.630;9.418;2023-06-24T10:35:25;5.20;;;4.50;;
40755;SDS011;26461;45.630;9.418;2023-06-24T10:38:40;5.53;;;4.97;;
40755;SDS011;26461;45.630;9.418;2023-06-24T10:41:50;5.00;;;4.40;;
40755;SDS011;26461;45.630;9.418;2023-06-24T10:48:20;7.27;;;5.40;;
40755;SDS011;26461;45.630;9.418;2023-06-24T10:51:25;7.20;;;4.83;;
40755;SDS011;26461;45.630;9.418;2023-06-24T10:54:38;7.97;;;5.57;;
40755;SDS011;26461;45.630;9.418;2023-06-24T10:57:50;6.30;;;5.47;;
40755;SDS011;26461;45.630;9.418;2023-06-24T11:01:05;5.27;;;4.53;;
40755;SDS011;26461;45.630;9.418;2023-06-24T11:04:16;5.37;;;4.60;;
40755;SDS011;26461;45.630;9.418;2023-06-24T11:07:30;6.80;;;5.60;;
40755;SDS011;26461;45.630;9.418;2023-06-24T11:10:51;7.17;;;5.03;;
40755;SDS011;26461;45.630;9.418;2023-06-24T11:14:04;6.33;;;3.83;;
40755;SDS011;26461;45.630;9.418;2023-06-24T11:17:15;6.07;;;4.33;;
40755;SDS011;26461;45.630;9.418;2023-06-24T11:20:27;4.00;;;3.80;;
40755;SDS011;26461;45.630;9.418;2023-06-24T11:23:44;4.50;;;4.10;;
40755;SDS011;26461;45.630;9.418;2023-06-24T11:26:55;5.53;;;4.50;;
40755;SDS011;26461;45.630;9.418;2023-06-24T11:30:12;6.23;;;3.73;;
40755;SDS011;26461;45.630;9.418;2023-06-24T11:33:32;4.90;;;4.60;;
40755;SDS011;26461;45.630;9.418;2023-06-24T11:36:45;4.83;;;4.27;;
40755;SDS011;26461;45.630;9.418;2023-06-24T11:40:08;4.43;;;4.07;;
40755;SDS011;26461;45.630;9.418;2023-06-24T11:43:28;5.93;;;3.83;;
40755;SDS011;26461;45.630;9.418;2023-06-24T11:46:45;6.07;;;4.63;;
40755;SDS011;26461;45.630;9.418;2023-06-24T11:50:02;6.37;;;4.03;;
40755;SDS011;26461;45.630;9.418;2023-06-24T11:53:30;4.70;;;4.40;;
40755;SDS011;26461;45.630;9.418;2023-06-24T11:56:56;4.93;;;4.10;;
40755;SDS011;26461;45.630;9.418;2023-06-24T12:00:11;4.20;;;3.93;;
40755;SDS011;26461;45.630;9.418;2023-06-24T12:03:34;5.80;;;4.13;;
40755;SDS011;26461;45.630;9.418;2023-06-24T12:06:49;4.10;;;3.77;;
40755;SDS011;26461;45.630;9.418;2023-06-24T12:10:07;5.53;;;4.17;;
40755;SDS011;26461;45.630;9.418;2023-06-24T12:13:23;4.50;;;4.20;;
40755;SDS011;26461;45.630;9.418;2023-06-24T12:16:34;5.63;;;3.80;;
40755;SDS011;26461;45.630;9.418;2023-06-24T12:19:40;4.70;;;3.80;;
40755;SDS011;26461;45.630;9.418;2023-06-24T12:23:00;4.20;;;3.60;;
40755;SDS011;26461;45.630;9.418;2023-06-24T12:26:20;3.63;;;3.20;;
40755;SDS011;26461;45.630;9.418;2023-06-24T12:29:40;5.00;;;3.17;;
40755;SDS011;26461;45.630;9.418;2023-06-24T12:33:03;3.63;;;3.33;;
40755;SDS011;26461;45.630;9.418;2023-06-24T12:36:15;4.50;;;4.00;;
40755;SDS011;26461;45.630;9.418;2023-06-24T12:39:34;4.67;;;4.00;;
40755;SDS011;26461;45.630;9.418;2023-06-24T12:42:42;3.40;;;3.20;;
40755;SDS011;26461;45.630;9.418;2023-06-24T12:45:58;4.80;;;3.80;;
40755;SDS011;26461;45.630;9.418;2023-06-24T12:49:16;5.37;;;3.63;;
40755;SDS011;26461;45.630;9.418;2023-06-24T12:52:27;3.87;;;3.77;;
40755;SDS011;26461;45.630;9.418;2023-06-24T12:55:49;3.73;;;3.50;;
40755;SDS011;26461;45.630;9.418;2023-06-24T12:59:09;4.60;;;3.80;;
40755;SDS011;26461;45.630;9.418;2023-06-24T13:02:33;3.83;;;3.63;;
40755;SDS011;26461;45.630;9.418;2023-06-24T13:05:47;4.60;;;4.00;;
40755;SDS011;26461;45.630;9.418;2023-06-24T13:08:59;3.50;;;3.33;;
40755;SDS011;26461;45.630;9.418;2023-06-24T13:12:23;4.47;;;4.20;;
40755;SDS011;26461;45.630;9.418;2023-06-24T13:15:37;4.40;;;3.77;;
40755;SDS011;26461;45.630;9.418;2023-06-24T13:18:55;3.83;;;3.10;;
40755;SDS011;26461;45.630;9.418;2023-06-24T13:22:12;4.47;;;3.40;;
40755;SDS011;26461;45.630;9.418;2023-06-24T13:25:40;8.43;;;3.63;;
40755;SDS011;26461;45.630;9.418;2023-06-24T13:28:55;4.87;;;3.30;;
40755;SDS011;26461;45.630;9.418;2023-06-24T13:32:08;4.63;;;4.33;;
40755;SDS011;26461;45.630;9.418;2023-06-24T13:35:22;3.60;;;3.40;;
40755;SDS011;26461;45.630;9.418;2023-06-24T13:38:32;8.97;;;3.33;;
40755;SDS011;26461;45.630;9.418;2023-06-24T13:41:56;3.67;;;3.47;;
40755;SDS011;26461;45.630;9.418;2023-06-24T13:45:06;3.47;;;3.20;;
40755;SDS011;26461;45.630;9.418;2023-06-24T13:48:21;4.63;;;3.60;;
40755;SDS011;26461;45.630;9.418;2023-06-24T13:51:32;3.87;;;3.63;;
40755;SDS011;26461;45.630;9.418;2023-06-24T13:54:48;4.17;;;3.43;;
40755;SDS011;26461;45.630;9.418;2023-06-24T13:58:05;5.10;;;4.00;;
40755;SDS011;26461;45.630;9.418;2023-06-24T14:01:19;4.53;;;3.80;;
40755;SDS011;26461;45.630;9.418;2023-06-24T14:04:35;4.43;;;4.13;;
40755;SDS011;26461;45.630;9.418;2023-06-24T14:07:41;5.27;;;4.43;;
40755;SDS011;26461;45.630;9.418;2023-06-24T14:10:54;5.07;;;4.33;;
40755;SDS011;26461;45.630;9.418;2023-06-24T14:14:13;4.07;;;3.30;;
40755;SDS011;26461;45.630;9.418;2023-06-24T14:17:28;5.30;;;4.23;;
40755;SDS011;26461;45.630;9.418;2023-06-24T14:20:36;4.40;;;4.10;;
40755;SDS011;26461;45.630;9.418;2023-06-24T14:23:50;4.93;;;4.63;;
40755;SDS011;26461;45.630;9.418;2023-06-24T14:26:56;5.10;;;3.87;;
40755;SDS011;26461;45.630;9.418;2023-06-24T14:30:09;6.20;;;4.23;;
40755;SDS011;26461;45.630;9.418;2023-06-24T14:33:23;5.47;;;4.73;;
40755;SDS011;26461;45.630;9.418;2023-06-24T14:36:33;9.90;;;5.27;;
40755;SDS011;26461;45.630;9.418;2023-06-24T14:39:42;5.27;;;4.53;;
40755;SDS011;26461;45.630;9.418;2023-06-24T14:42:53;6.20;;;4.47;;
40755;SDS011;26461;45.630;9.418;2023-06-24T14:46:03;5.70;;;5.40;;
40755;SDS011;26461;45.630;9.418;2023-06-24T14:49:15;7.70;;;5.50;;
40755;SDS011;26461;45.630;9.418;2023-06-24T14:52:34;5.17;;;4.90;;
40755;SDS011;26461;45.630;9.418;2023-06-24T14:55:45;5.20;;;4.87;;
40755;SDS011;26461;45.630;9.418;2023-06-24T14:59:01;7.03;;;5.00;;
40755;SDS011;26461;45.630;9.418;2023-06-24T15:02:15;4.93;;;4.40;;
40755;SDS011;26461;45.630;9.418;2023-06-24T15:05:36;5.73;;;5.30;;
40755;SDS011;26461;45.630;9.418;2023-06-24T15:08:45;5.63;;;4.97;;
40755;SDS011;26461;45.630;9.418;2023-06-24T15:12:08;6.67;;;4.93;;
40755;SDS011;26461;45.630;9.418;2023-06-24T15:15:27;9.90;;;4.80;;
40755;SDS011;26461;45.630;9.418;2023-06-24T15:18:44;5.80;;;4.93;;
40755;SDS011;26461;45.630;9.418;2023-06-24T15:22:01;5.27;;;4.97;;
40755;SDS011;26461;45.630;9.418;2023-06-24T15:25:11;5.60;;;5.30;;
40755;SDS011;26461;45.630;9.418;2023-06-24T15:28:31;5.27;;;4.90;;
40755;SDS011;26461;45.630;9.418;2023-06-24T15:31:46;7.50;;;5.97;;
40755;SDS011;26461;45.630;9.418;2023-06-24T15:34:57;7.60;;;5.37;;
40755;SDS011;26461;45.630;9.418;2023-06-24T15:38:05;7.50;;;5.53;;
40755;SDS011;26461;45.630;9.418;2023-06-24T15:41:11;5.87;;;5.57;;
40755;SDS011;26461;45.630;9.418;2023-06-24T15:44:18;5.00;;;4.70;;
40755;SDS011;26461;45.630;9.418;2023-06-24T15:47:28;8.90;;;5.77;;
40755;SDS011;26461;45.630;9.418;2023-06-24T15:50:34;6.63;;;4.70;;
40755;SDS011;26461;45.630;9.418;2023-06-24T15:53:44;7.10;;;5.07;;
40755;SDS011;26461;45.630;9.418;2023-06-24T15:56:55;8.80;;;6.17;;
40755;SDS011;26461;45.630;9.418;2023-06-24T16:00:00;5.33;;;5.03;;
40755;SDS011;26461;45.630;9.418;2023-06-24T16:03:10;5.17;;;4.93;;
40755;SDS011;26461;45.630;9.418;2023-06-24T16:06:21;6.00;;;5.73;;
40755;SDS011;26461;45.630;9.418;2023-06-24T16:09:33;7.70;;;5.73;;
40755;SDS011;26461;45.630;9.418;2023-06-24T16:12:44;6.43;;;5.20;;
40755;SDS011;26461;45.630;9.418;2023-06-24T16:15:54;5.20;;;4.90;;
40755;SDS011;26461;45.630;9.418;2023-06-24T16:19:04;6.13;;;5.20;;
40755;SDS011;26461;45.630;9.418;2023-06-24T16:22:09;6.30;;;5.90;;
40755;SDS011;26461;45.630;9.418;2023-06-24T16:25:15;7.07;;;4.83;;
40755;SDS011;26461;45.630;9.418;2023-06-24T16:28:25;5.60;;;5.00;;
40755;SDS011;26461;45.630;9.418;2023-06-24T16:31:31;9.70;;;5.70;;
40755;SDS011;26461;45.630;9.418;2023-06-24T16:34:42;6.90;;;6.10;;
40755;SDS011;26461;45.630;9.418;2023-06-24T16:37:52;5.70;;;4.80;;
40755;SDS011;26461;45.630;9.418;2023-06-24T16:40:58;5.63;;;4.53;;
40755;SDS011;26461;45.630;9.418;2023-06-24T16:44:05;5.67;;;5.37;;
40755;SDS011;26461;45.630;9.418;2023-06-24T16:47:15;9.67;;;5.63;;
40755;SDS011;26461;45.630;9.418;2023-06-24T16:50:20;6.33;;;5.67;;
40755;SDS011;26461;45.630;9.418;2023-06-24T16:53:25;9.90;;;5.90;;
40755;SDS011;26461;45.630;9.418;2023-06-24T16:56:31;6.00;;;4.87;;
40755;SDS011;26461;45.630;9.418;2023-06-24T16:59:42;5.33;;;4.70;;
40755;SDS011;26461;45.630;9.418;2023-06-24T17:02:53;5.30;;;5.00;;
40755;SDS011;26461;45.630;9.418;2023-06-24T17:06:05;4.93;;;4.63;;
40755;SDS011;26461;45.630;9.418;2023-06-24T17:09:12;5.80;;;4.37;;
40755;SDS011;26461;45.630;9.418;2023-06-24T17:12:23;6.37;;;5.20;;
40755;SDS011;26461;45.630;9.418;2023-06-24T17:15:33;6.10;;;4.37;;
40755;SDS011;26461;45.630;9.418;2023-06-24T17:18:38;5.70;;;4.93;;
40755;SDS011;26461;45.630;9.418;2023-06-24T17:21:49;5.53;;;5.00;;
40755;SDS011;26461;45.630;9.418;2023-06-24T17:24:59;6.37;;;4.60;;
40755;SDS011;26461;45.630;9.418;2023-06-24T17:28:10;7.40;;;4.20;;
40755;SDS011;26461;45.630;9.418;2023-06-24T17:31:15;6.13;;;5.50;;
40755;SDS011;26461;45.630;9.418;2023-06-24T17:34:25;6.50;;;4.67;;
40755;SDS011;26461;45.630;9.418;2023-06-24T17:37:33;4.60;;;4.30;;
40755;SDS011;26461;45.630;9.418;2023-06-24T17:40:43;5.23;;;4.93;;
40755;SDS011;26461;45.630;9.418;2023-06-24T17:43:54;3.87;;;3.67;;
40755;SDS011;26461;45.630;9.418;2023-06-24T17:47:05;7.33;;;4.70;;
40755;SDS011;26461;45.630;9.418;2023-06-24T17:50:10;4.63;;;4.33;;
40755;SDS011;26461;45.630;9.418;2023-06-24T17:53:16;4.73;;;4.50;;
40755;SDS011;26461;45.630;9.418;2023-06-24T17:56:21;4.30;;;3.70;;
40755;SDS011;26461;45.630;9.418;2023-06-24T17:59:30;6.37;;;4.50;;
40755;SDS011;26461;45.630;9.418;2023-06-24T18:02:41;6.60;;;4.43;;
40755;SDS011;26461;45.630;9.418;2023-06-24T18:05:54;7.10;;;3.83;;
40755;SDS011;26461;45.630;9.418;2023-06-24T18:09:10;6.10;;;4.43;;
40755;SDS011;26461;45.630;9.418;2023-06-24T18:12:16;9.50;;;4.60;;
40755;SDS011;26461;45.630;9.418;2023-06-24T18:15:27;4.73;;;4.40;;
40755;SDS011;26461;45.630;9.418;2023-06-24T18:18:37;9.20;;;4.20;;
40755;SDS011;26461;45.630;9.418;2023-06-24T18:21:43;7.30;;;4.70;;
40755;SDS011;26461;45.630;9.418;2023-06-24T18:24:48;11.50;;;4.33;;
40755;SDS011;26461;45.630;9.418;2023-06-24T18:27:54;5.37;;;3.97;;
40755;SDS011;26461;45.630;9.418;2023-06-24T18:31:13;6.10;;;4.47;;
40755;SDS011;26461;45.630;9.418;2023-06-24T18:34:26;4.63;;;3.90;;
40755;SDS011;26461;45.630;9.418;2023-06-24T18:37:32;6.30;;;4.47;;
40755;SDS011;26461;45.630;9.418;2023-06-24T18:40:45;5.27;;;4.30;;
40755;SDS011;26461;45.630;9.418;2023-06-24T18:44:02;11.03;;;4.80;;
40755;SDS011;26461;45.630;9.418;2023-06-24T18:47:24;4.70;;;4.37;;
40755;SDS011;26461;45.630;9.418;2023-06-24T18:50:33;5.30;;;4.40;;
40755;SDS011;26461;45.630;9.418;2023-06-24T18:53:51;6.77;;;4.80;;
40755;SDS011;26461;45.630;9.418;2023-06-24T18:56:57;7.23;;;5.03;;
40755;SDS011;26461;45.630;9.418;2023-06-24T19:00:18;3.90;;;3.70;;
40755;SDS011;26461;45.630;9.418;2023-06-24T19:03:31;10.37;;;4.50;;
40755;SDS011;26461;45.630;9.418;2023-06-24T19:06:38;7.93;;;3.53;;
40755;SDS011;26461;45.630;9.418;2023-06-24T19:09:51;8.60;;;3.80;;
40755;SDS011;26461;45.630;9.418;2023-06-24T19:13:03;5.80;;;4.03;;
40755;SDS011;26461;45.630;9.418;2023-06-24T19:16:11;5.83;;;4.50;;
40755;SDS011;26461;45.630;9.418;2023-06-24T19:19:27;6.77;;;3.53;;
40755;SDS011;26461;45.630;9.418;2023-06-24T19:22:41;8.20;;;3.47;;
40755;SDS011;26461;45.630;9.418;2023-06-24T19:25:55;4.70;;;4.10;;
40755;SDS011;26461;45.630;9.418;2023-06-24T19:29:00;5.73;;;3.90;;